Time;durP1;ratioP1;P1;durP2;ratioP2;P2;SDS_P1;SDS_P2;PMS_P1;PMS_P2;Temp;Humidity;BMP_temperature;BMP_pressure;BME280_temperature;BME280_humidity;BME280_pressure;Samples;Min_cycle;Max_cycle;Signal;HPM_P1;HPM_P2
2022/03/15 00:01:33;;;;;;;;;;;;;;;17.82;59.97;102887.88;4972182;28;1914;-34
2022/03/15 00:04:02;;;;;;;;;;;;;;;17.84;59.79;102882.47;4967321;28;1364;-34
2022/03/15 00:06:34;;;;;;;;;;;;;;;17.79;59.59;102873.81;4965108;28;1910;-34
2022/03/15 00:09:03;;;;;;;;;;;;;;;17.76;59.90;102871.25;4974548;28;1717;-36
2022/03/15 00:11:40;;;;;;;;;;;;;;;17.74;59.73;102881.19;4964542;28;1960;-35
2022/03/15 00:14:14;;;;;;;;;;;;;;;17.74;59.77;102874.00;4971096;28;1478;-34
2022/03/15 00:16:46;;;;;;;;;;;;;;;17.71;60.01;102868.81;4971481;28;1816;-34
2022/03/15 00:19:15;;;;;;;;;;;;;;;17.67;58.91;102876.13;4959874;28;1591;-34
2022/03/15 00:21:44;;;;;;;;;;;;;;;17.66;59.32;102873.53;4972621;28;1781;-34
2022/03/15 00:24:13;;;;;;;;;;;;;;;17.73;60.53;102864.25;4974999;28;1976;-34
2022/03/15 00:29:22;;;;;;;;;;;;;;;17.81;60.19;102864.75;4967302;28;1767;-34
2022/03/15 00:31:53;;;;;;;;;;;;;;;17.83;60.03;102865.56;4960398;28;1016;-34
2022/03/15 00:34:22;;;;;;;;;;;;;;;17.84;60.30;102861.94;4967523;28;1815;-34
2022/03/15 00:36:51;;;;;;;;;;;;;;;17.81;60.14;102855.84;4970010;28;1934;-34
2022/03/15 00:39:24;;;;;;;;;;;;;;;17.83;59.81;102849.50;4967099;28;2068;-34
2022/03/15 00:41:54;;;;;;;;;;;;;;;17.85;59.89;102860.13;4964787;28;1678;-35
2022/03/15 00:44:24;;;;;;;;;;;;;;;17.87;59.50;102851.09;4973580;28;1404;-34
2022/03/15 00:46:54;;;;;;;;;;;;;;;17.87;59.94;102858.25;4972353;28;1902;-35
2022/03/15 00:49:23;;;;;;;;;;;;;;;18.01;60.19;102853.06;4963255;28;1611;-34
2022/03/15 00:51:52;;;;;;;;;;;;;;;18.28;59.54;102839.19;4963812;28;1705;-35
2022/03/15 00:54:27;;;;;;;;;;;;;;;18.54;58.65;102843.16;4968838;28;1757;-34
2022/03/15 00:56:54;;;;;;;;;;;;;;;18.74;57.73;102835.88;4967962;28;1678;-34
2022/03/15 00:59:24;;;;;;;;;;;;;;;18.89;56.88;102856.50;4955254;28;1094;-34
2022/03/15 01:01:52;;;;;;;;;;;;;;;18.96;57.17;102836.47;4962955;28;1972;-34
2022/03/15 01:04:19;;;;;;;;;;;;;;;19.03;56.28;102831.63;4966498;28;1718;-34
2022/03/15 01:06:46;;;;;;;;;;;;;;;19.01;56.72;102829.03;4959451;28;2242;-35
2022/03/15 01:09:14;;;;;;;;;;;;;;;18.94;57.82;102826.75;4986132;28;1894;-34
2022/03/15 01:11:43;;;;;;;;;;;;;;;18.95;56.74;102829.38;4963976;28;1583;-34
2022/03/15 01:14:20;;;;;;;;;;;;;;;18.86;57.27;102819.13;4965161;28;1478;-34
2022/03/15 01:16:49;;;;;;;;;;;;;;;18.79;57.89;102836.50;4956059;28;1910;-34
2022/03/15 01:19:24;;;;;;;;;;;;;;;18.71;57.46;102807.44;4967925;28;1627;-34
2022/03/15 01:21:51;;;;;;;;;;;;;;;18.64;57.40;102824.78;4972171;28;1268;-34
2022/03/15 01:24:19;;;;;;;;;;;;;;;18.60;57.47;102815.16;4985394;28;1617;-34
2022/03/15 01:26:52;;;;;;;;;;;;;;;18.54;58.25;102824.41;4981500;28;1978;-34
2022/03/15 01:29:24;;;;;;;;;;;;;;;18.49;58.22;102829.16;4974674;28;1787;-34
2022/03/15 01:31:51;;;;;;;;;;;;;;;18.42;58.59;102825.94;4965367;28;1683;-34
2022/03/15 01:34:22;;;;;;;;;;;;;;;18.36;58.10;102804.81;4976150;28;1640;-34
2022/03/15 01:36:53;;;;;;;;;;;;;;;18.32;58.75;102823.81;4962583;28;1764;-34
2022/03/15 01:39:22;;;;;;;;;;;;;;;18.24;58.68;102813.50;4960827;28;1615;-34
2022/03/15 01:41:49;;;;;;;;;;;;;;;18.16;58.69;102797.84;4969093;28;1663;-34
2022/03/15 01:44:18;;;;;;;;;;;;;;;18.13;59.01;102814.09;4958905;28;1018;-34
2022/03/15 01:46:45;;;;;;;;;;;;;;;18.08;58.78;102822.38;4965500;28;1902;-34
2022/03/15 01:49:15;;;;;;;;;;;;;;;18.08;58.75;102821.47;4966759;28;1549;-34
2022/03/15 01:51:48;;;;;;;;;;;;;;;18.05;58.62;102818.97;4970808;28;1622;-34
2022/03/15 01:54:22;;;;;;;;;;;;;;;18.04;58.25;102833.28;4974733;28;1545;-34
2022/03/15 01:56:49;;;;;;;;;;;;;;;18.01;58.80;102831.66;4974712;28;1909;-35
2022/03/15 01:59:17;;;;;;;;;;;;;;;17.97;58.16;102834.56;4970690;28;1097;-35
2022/03/15 02:01:44;;;;;;;;;;;;;;;17.96;58.41;102843.53;4962633;28;1676;-34
2022/03/15 02:04:12;;;;;;;;;;;;;;;17.96;58.32;102840.84;4964974;28;1562;-34
2022/03/15 02:06:44;;;;;;;;;;;;;;;17.90;58.61;102844.69;4968264;28;1906;-35
2022/03/15 02:09:18;;;;;;;;;;;;;;;17.86;57.95;102833.28;4970696;28;1825;-34
2022/03/15 02:11:46;;;;;;;;;;;;;;;17.84;57.54;102845.00;4966998;28;1656;-35
2022/03/15 02:14:16;;;;;;;;;;;;;;;17.79;57.59;102837.19;4965650;28;1404;-34
2022/03/15 02:16:45;;;;;;;;;;;;;;;17.81;57.81;102848.69;4983461;28;1871;-34
2022/03/15 02:19:15;;;;;;;;;;;;;;;17.77;57.97;102854.28;4974651;28;1615;-34
2022/03/15 02:21:47;;;;;;;;;;;;;;;17.75;57.59;102840.97;4971444;28;1467;-34
2022/03/15 02:24:17;;;;;;;;;;;;;;;17.69;57.19;102841.28;4976149;28;1828;-34
2022/03/15 02:26:46;;;;;;;;;;;;;;;17.71;57.36;102852.75;4974893;28;1966;-35
2022/03/15 02:29:15;;;;;;;;;;;;;;;17.70;57.40;102843.84;4969886;28;1340;-34
2022/03/15 02:31:44;;;;;;;;;;;;;;;17.68;57.54;102847.56;4975764;28;1534;-34
2022/03/15 02:34:13;;;;;;;;;;;;;;;17.64;57.42;102840.63;4966366;28;1781;-34
2022/03/15 02:36:40;;;;;;;;;;;;;;;17.59;57.66;102850.69;4967589;28;1658;-34
2022/03/15 02:39:11;;;;;;;;;;;;;;;17.60;57.48;102841.72;4965570;28;1943;-34
2022/03/15 02:41:41;;;;;;;;;;;;;;;17.63;57.51;102849.59;4969439;28;1426;-34
2022/03/15 02:44:08;;;;;;;;;;;;;;;17.64;57.86;102864.69;4961164;28;1539;-34
2022/03/15 02:46:39;;;;;;;;;;;;;;;17.64;58.09;102864.69;4961293;28;1907;-35
2022/03/15 02:49:09;;;;;;;;;;;;;;;17.61;58.03;102864.88;4972709;28;1591;-34
2022/03/15 02:51:38;;;;;;;;;;;;;;;17.56;58.05;102873.09;4966255;28;1658;-34
2022/03/15 02:54:11;;;;;;;;;;;;;;;17.56;58.10;102878.44;4958184;28;1417;-34
2022/03/15 02:56:47;;;;;;;;;;;;;;;17.51;57.83;102869.81;4974154;28;1610;-34
2022/03/15 02:59:14;;;;;;;;;;;;;;;17.51;57.74;102880.50;4969575;28;1078;-34
2022/03/15 03:01:45;;;;;;;;;;;;;;;17.50;57.46;102887.63;5068043;23;3769;-35
2022/03/15 03:04:16;;;;;;;;;;;;;;;17.50;57.79;102874.25;4971908;28;1503;-34
2022/03/15 03:06:47;;;;;;;;;;;;;;;17.62;58.24;102883.50;4975079;28;1906;-35
2022/03/15 03:09:16;;;;;;;;;;;;;;;17.95;58.55;102873.94;4975367;28;1277;-34
2022/03/15 03:11:45;;;;;;;;;;;;;;;18.26;57.88;102890.16;4975212;28;1349;-34
2022/03/15 03:14:13;;;;;;;;;;;;;;;18.53;56.87;102876.28;4974173;28;1074;-34
2022/03/15 03:16:39;;;;;;;;;;;;;;;18.56;56.86;102870.75;4975317;28;1532;-34
2022/03/15 03:19:08;;;;;;;;;;;;;;;18.64;56.55;102873.91;4975395;28;1087;-34
2022/03/15 03:21:36;;;;;;;;;;;;;;;18.69;56.33;102871.81;4975393;28;1736;-34
2022/03/15 03:24:04;;;;;;;;;;;;;;;18.74;56.17;102862.66;4975623;28;1758;-34
2022/03/15 03:26:34;;;;;;;;;;;;;;;18.81;56.04;102858.75;4975089;28;1914;-35
2022/03/15 03:29:09;;;;;;;;;;;;;;;18.79;56.14;102855.25;4974725;28;1445;-34
2022/03/15 03:31:39;;;;;;;;;;;;;;;18.75;56.29;102846.50;4975433;28;1634;-34
2022/03/15 03:34:07;;;;;;;;;;;;;;;18.67;55.97;102838.88;4974894;28;1389;-34
2022/03/15 03:36:37;;;;;;;;;;;;;;;18.60;56.80;102834.81;4974923;28;2008;-34
2022/03/15 03:39:12;;;;;;;;;;;;;;;18.57;56.34;102834.97;4974723;28;1418;-34
2022/03/15 03:41:40;;;;;;;;;;;;;;;18.57;56.10;102834.97;4974158;28;1287;-34
2022/03/15 03:44:09;;;;;;;;;;;;;;;18.51;56.78;102834.44;4974340;28;1466;-34
2022/03/15 03:46:35;;;;;;;;;;;;;;;18.43;57.06;102827.66;4974612;28;1910;-34
2022/03/15 03:49:03;;;;;;;;;;;;;;;18.37;56.78;102827.13;4975200;28;1067;-34
2022/03/15 03:51:30;;;;;;;;;;;;;;;18.32;56.73;102829.19;4974870;28;1668;-34
2022/03/15 03:53:59;;;;;;;;;;;;;;;18.27;57.22;102824.06;4974778;28;1459;-34
2022/03/15 03:56:28;;;;;;;;;;;;;;;18.22;56.76;102826.13;4974952;28;1080;-34
2022/03/15 03:58:56;;;;;;;;;;;;;;;18.16;56.89;102829.97;4974991;28;1080;-34
2022/03/15 04:01:25;;;;;;;;;;;;;;;18.07;57.45;102815.25;4974199;28;1769;-34
2022/03/15 04:03:51;;;;;;;;;;;;;;;18.02;57.14;102828.00;4974539;28;1883;-34
2022/03/15 04:06:20;;;;;;;;;;;;;;;18.01;56.98;102828.09;4974478;28;1646;-34
2022/03/15 04:08:54;;;;;;;;;;;;;;;18.15;56.90;102825.56;4974636;28;1107;-35
2022/03/15 04:11:36;;;;;;;;;;;;;;;18.23;58.18;102823.38;4974463;28;1070;-34
2022/03/15 04:14:03;;;;;;;;;;;;;;;18.15;57.82;102811.34;4974911;28;1565;-34
2022/03/15 04:16:34;;;;;;;;;;;;;;;18.08;58.32;102821.47;4975046;28;1357;-34
2022/03/15 04:19:01;;;;;;;;;;;;;;;18.05;58.27;102821.66;4974257;28;1611;-35
2022/03/15 04:21:28;;;;;;;;;;;;;;;18.03;58.15;102837.78;4974317;28;1801;-34
2022/03/15 04:23:57;;;;;;;;;;;;;;;17.96;58.29;102822.97;4974287;28;1261;-34
2022/03/15 04:26:25;;;;;;;;;;;;;;;17.94;58.12;102829.34;4972095;28;1079;-34
2022/03/15 04:29:02;;;;;;;;;;;;;;;17.86;58.86;102821.72;4972802;28;1946;-34
2022/03/15 04:31:34;;;;;;;;;;;;;;;17.84;59.03;102815.56;4974462;28;1877;-34
2022/03/15 04:34:01;;;;;;;;;;;;;;;17.85;59.27;102826.22;4974460;28;1663;-34
2022/03/15 04:36:27;;;;;;;;;;;;;;;17.82;59.74;102820.09;4974363;28;1712;-34
2022/03/15 04:38:58;;;;;;;;;;;;;;;17.82;59.64;102831.66;4974444;28;2363;-35
2022/03/15 04:41:29;;;;;;;;;;;;;;;17.85;59.90;102831.56;4960572;28;1062;-34
2022/03/15 04:43:59;;;;;;;;;;;;;;;17.89;59.69;102840.31;4974292;28;1533;-34
2022/03/15 04:46:30;;;;;;;;;;;;;;;17.87;60.01;102832.34;4974268;28;1588;-35
2022/03/15 04:49:06;;;;;;;;;;;;;;;17.83;59.02;102838.81;4974493;28;1967;-34
2022/03/15 04:51:32;;;;;;;;;;;;;;;17.82;59.46;102845.03;4961959;28;1701;-34
2022/03/15 04:54:08;;;;;;;;;;;;;;;17.82;60.24;102853.06;4976081;28;1505;-34
2022/03/15 04:56:38;;;;;;;;;;;;;;;17.78;59.72;102856.84;4976635;28;1670;-35
2022/03/15 04:59:05;;;;;;;;;;;;;;;17.77;60.26;102839.06;4977555;28;1446;-34
2022/03/15 05:01:34;;;;;;;;;;;;;;;17.78;60.65;102843.47;4977457;28;1451;-34
2022/03/15 05:04:04;;;;;;;;;;;;;;;17.74;60.54;102843.72;4977411;28;1497;-34
2022/03/15 05:06:31;;;;;;;;;;;;;;;17.75;60.64;102845.47;4977878;28;1275;-35
2022/03/15 05:08:57;;;;;;;;;;;;;;;17.75;60.76;102850.81;4977528;28;1907;-34
2022/03/15 05:11:27;;;;;;;;;;;;;;;17.76;60.75;102853.38;4977957;28;1852;-34
2022/03/15 05:13:54;;;;;;;;;;;;;;;17.71;60.55;102850.09;4977426;28;1422;-34
2022/03/15 05:16:22;;;;;;;;;;;;;;;17.78;60.60;102856.84;4976894;28;1267;-35
2022/03/15 05:18:52;;;;;;;;;;;;;;;17.73;60.86;102853.56;4977772;28;1603;-34
2022/03/15 05:21:31;;;;;;;;;;;;;;;17.75;60.89;102853.50;4977783;28;1686;-35
2022/03/15 05:23:59;;;;;;;;;;;;;;;17.74;60.71;102854.41;4976404;28;1466;-35
2022/03/15 05:26:27;;;;;;;;;;;;;;;17.73;60.75;102848.19;4977804;28;1067;-35
2022/03/15 05:28:55;;;;;;;;;;;;;;;17.74;60.83;102849.06;4977683;28;1907;-34
2022/03/15 05:31:29;;;;;;;;;;;;;;;17.81;60.58;102850.50;4977530;28;1556;-35
2022/03/15 05:33:55;;;;;;;;;;;;;;;17.72;60.57;102841.09;4965169;28;2025;-34
2022/03/15 05:36:28;;;;;;;;;;;;;;;17.74;60.75;102843.72;4977233;28;1784;-34
2022/03/15 05:39:00;;;;;;;;;;;;;;;17.74;60.79;102843.72;4977208;28;1631;-35
2022/03/15 05:41:35;;;;;;;;;;;;;;;17.74;60.79;102844.56;4960563;28;1754;-34
2022/03/15 05:44:09;;;;;;;;;;;;;;;17.77;61.00;102873.88;4977084;28;1416;-35
2022/03/15 05:46:35;;;;;;;;;;;;;;;17.77;60.63;102863.16;4977275;28;1674;-34
2022/03/15 05:49:03;;;;;;;;;;;;;;;17.79;60.35;102858.59;4977581;28;1980;-34
2022/03/15 05:51:33;;;;;;;;;;;;;;;17.77;60.19;102855.13;4977199;28;1974;-34
2022/03/15 05:54:01;;;;;;;;;;;;;;;17.80;60.23;102860.31;4977021;28;2001;-35
2022/03/15 05:56:28;;;;;;;;;;;;;;;17.87;60.41;102859.13;4976760;28;1593;-34
2022/03/15 05:58:55;;;;;;;;;;;;;;;17.88;60.57;102854.63;4976458;28;1621;-34
2022/03/15 06:01:22;;;;;;;;;;;;;;;17.91;60.42;102850.94;4976467;28;1733;-35
2022/03/15 06:03:50;;;;;;;;;;;;;;;17.93;60.52;102854.41;4976370;28;1427;-35
2022/03/15 06:06:17;;;;;;;;;;;;;;;17.93;60.74;102849.91;4975500;28;1617;-35
2022/03/15 06:08:52;;;;;;;;;;;;;;;17.93;60.19;102865.13;4977060;28;1907;-34
2022/03/15 06:11:21;;;;;;;;;;;;;;;17.93;59.97;102860.63;4976697;28;1060;-35
2022/03/15 06:13:49;;;;;;;;;;;;;;;17.94;60.35;102867.69;4976275;28;1726;-35
2022/03/15 06:16:16;;;;;;;;;;;;;;;17.98;60.57;102858.56;4976518;28;1825;-34
2022/03/15 06:18:43;;;;;;;;;;;;;;;17.97;60.23;102855.97;4976674;28;1658;-34
2022/03/15 06:21:13;;;;;;;;;;;;;;;18.03;60.35;102855.66;4970279;28;1719;-35
2022/03/15 06:23:40;;;;;;;;;;;;;;;18.13;59.80;102864.97;4976992;28;1024;-34
2022/03/15 06:26:09;;;;;;;;;;;;;;;18.64;57.75;102854.25;4976148;28;2006;-34
2022/03/15 06:28:36;;;;;;;;;;;;;;;19.29;56.57;102862.34;4976182;28;1906;-35
2022/03/15 06:31:05;;;;;;;;;;;;;;;19.73;56.52;102868.84;4975704;28;1081;-34
2022/03/15 06:33:33;;;;;;;;;;;;;;;19.82;55.60;102877.22;4975810;28;1972;-34
2022/03/15 06:36:01;;;;;;;;;;;;;;;19.93;55.46;102881.94;4976141;28;1488;-34
2022/03/15 06:38:29;;;;;;;;;;;;;;;20.30;54.54;102873.53;4975416;28;1284;-34
2022/03/15 06:40:56;;;;;;;;;;;;;;;20.17;54.86;102866.19;4976474;28;1781;-34
2022/03/15 06:43:26;;;;;;;;;;;;;;;20.16;55.55;102883.28;4975716;28;1566;-33
2022/03/15 06:45:58;;;;;;;;;;;;;;;20.31;56.30;102875.25;4976180;28;1521;-33
2022/03/15 06:51:05;;;;;;;;;;;;;;;20.43;54.52;102875.41;4976002;28;2148;-34
2022/03/15 06:53:33;;;;;;;;;;;;;;;20.35;55.80;102888.44;4975546;28;1213;-34
2022/03/15 06:56:01;;;;;;;;;;;;;;;20.53;54.91;102880.19;4975623;28;1742;-33
2022/03/15 06:58:28;;;;;;;;;;;;;;;20.52;55.78;102873.97;4972169;28;1983;-33
2022/03/15 07:00:55;;;;;;;;;;;;;;;20.33;55.64;102890.31;4973318;28;1415;-34
2022/03/15 07:03:22;;;;;;;;;;;;;;;20.11;55.90;102877.31;4972238;28;1441;-35
2022/03/15 07:05:48;;;;;;;;;;;;;;;20.04;55.69;102894.78;4973796;28;1678;-35
2022/03/15 07:08:15;;;;;;;;;;;;;;;19.93;56.21;102887.31;4973092;28;1940;-34
2022/03/15 07:10:41;;;;;;;;;;;;;;;19.94;56.96;102901.63;4972956;28;1973;-35
2022/03/15 07:13:08;;;;;;;;;;;;;;;19.84;57.46;102907.53;4974534;28;1875;-33
2022/03/15 07:15:36;;;;;;;;;;;;;;;19.74;57.61;102903.66;4975630;28;1090;-33
2022/03/15 07:18:02;;;;;;;;;;;;;;;19.80;57.70;102905.13;4970808;28;1930;-33
2022/03/15 07:20:28;;;;;;;;;;;;;;;19.77;56.62;102908.84;4974942;28;1669;-33
2022/03/15 07:22:55;;;;;;;;;;;;;;;19.63;56.88;102900.69;4972360;28;1565;-34
2022/03/15 07:25:22;;;;;;;;;;;;;;;19.59;57.08;102891.06;4971230;28;1546;-34
2022/03/15 07:27:49;;;;;;;;;;;;;;;19.52;57.74;102897.72;4974220;28;1903;-33
2022/03/15 07:30:15;;;;;;;;;;;;;;;19.50;57.90;102905.00;4974877;28;1685;-33
2022/03/15 07:32:43;;;;;;;;;;;;;;;19.38;58.31;102885.97;4974858;28;1848;-34
2022/03/15 07:35:10;;;;;;;;;;;;;;;19.34;57.98;102894.25;4974192;28;1662;-33
2022/03/15 07:37:37;;;;;;;;;;;;;;;19.26;58.12;102902.78;4974433;28;1782;-34
2022/03/15 07:40:03;;;;;;;;;;;;;;;19.24;58.29;102894.81;4974282;28;1405;-34
2022/03/15 07:42:30;;;;;;;;;;;;;;;19.37;57.53;102903.00;4973015;28;1565;-33
2022/03/15 07:45:13;;;;;;;;;;;;;;;19.25;58.48;102911.75;4983803;28;1780;-33
2022/03/15 07:50:43;;;;;;;;;;;;;;;19.12;58.91;102910.69;4973481;28;2431;-34
2022/03/15 07:53:16;;;;;;;;;;;;;;;19.17;58.45;102914.00;4973487;28;1581;-34
2022/03/15 07:55:44;;;;;;;;;;;;;;;19.24;57.89;102907.34;4977290;28;1669;-34
2022/03/15 07:58:16;;;;;;;;;;;;;;;19.20;58.56;102911.13;4977241;28;1432;-34
2022/03/15 08:00:42;;;;;;;;;;;;;;;19.12;58.68;102905.31;4974742;28;1607;-34
2022/03/15 08:03:08;;;;;;;;;;;;;;;19.16;58.94;102907.78;4971745;28;1624;-34
2022/03/15 08:05:37;;;;;;;;;;;;;;;19.16;58.78;102922.97;4970762;28;1873;-33
2022/03/15 08:08:06;;;;;;;;;;;;;;;19.22;57.99;102911.94;4971300;28;1910;-34
2022/03/15 08:10:36;;;;;;;;;;;;;;;19.33;58.23;102920.25;4973926;28;1612;-34
2022/03/15 08:13:06;;;;;;;;;;;;;;;19.09;58.47;102914.41;4974425;28;2014;-34
2022/03/15 08:15:34;;;;;;;;;;;;;;;19.07;58.56;102897.53;4974966;28;1796;-34
2022/03/15 08:18:03;;;;;;;;;;;;;;;19.18;58.30;102918.41;4974214;28;1704;-34
2022/03/15 08:20:33;;;;;;;;;;;;;;;19.20;58.18;102912.00;4974807;28;1982;-34
2022/03/15 08:23:02;;;;;;;;;;;;;;;19.27;57.64;102907.16;4968412;28;1762;-34
2022/03/15 08:25:33;;;;;;;;;;;;;;;19.30;57.70;102906.13;4974270;28;1500;-33
2022/03/15 08:28:26;;;;;;;;;;;;;;;19.31;58.14;102903.38;4969472;28;1977;-34
2022/03/15 08:30:53;;;;;;;;;;;;;;;19.36;57.58;102898.63;4966290;28;1136;-33
2022/03/15 08:33:20;;;;;;;;;;;;;;;19.42;57.35;102900.09;4978459;28;1757;-34
2022/03/15 08:35:49;;;;;;;;;;;;;;;19.50;57.53;102876.38;4977745;28;1719;-33
2022/03/15 08:38:19;;;;;;;;;;;;;;;19.53;57.27;102886.06;4977974;28;1498;-34
2022/03/15 08:40:47;;;;;;;;;;;;;;;19.53;57.44;102878.88;4966224;28;1618;-34
2022/03/15 08:43:17;;;;;;;;;;;;;;;19.54;57.13;102885.97;4977991;28;1658;-33
2022/03/15 08:45:44;;;;;;;;;;;;;;;19.52;57.87;102900.41;4978676;28;1078;-33
2022/03/15 08:48:13;;;;;;;;;;;;;;;19.50;57.74;102896.94;4978214;28;1906;-33
2022/03/15 08:50:40;;;;;;;;;;;;;;;19.48;58.44;102889.88;4978107;28;1762;-33
2022/03/15 08:53:09;;;;;;;;;;;;;;;19.44;57.63;102891.00;4978123;28;1789;-33
2022/03/15 08:55:38;;;;;;;;;;;;;;;19.44;58.30;102890.13;4978143;28;1389;-33
2022/03/15 08:58:08;;;;;;;;;;;;;;;19.41;58.16;102884.94;4978085;28;1944;-33
2022/03/15 09:00:39;;;;;;;;;;;;;;;19.33;58.19;102881.81;4964542;28;1645;-33
2022/03/15 09:03:08;;;;;;;;;;;;;;;19.32;57.53;102875.59;4977043;28;1929;-33
2022/03/15 09:05:37;;;;;;;;;;;;;;;19.31;57.83;102860.44;4977970;28;1639;-33
2022/03/15 09:08:07;;;;;;;;;;;;;;;19.26;57.29;102855.34;4977590;28;1968;-33
2022/03/15 09:10:36;;;;;;;;;;;;;;;19.29;57.33;102862.34;4977671;28;1509;-33
2022/03/15 09:13:07;;;;;;;;;;;;;;;19.22;58.12;102858.28;4977490;28;1905;-33
2022/03/15 09:15:37;;;;;;;;;;;;;;;19.23;57.18;102849.28;4978433;28;1042;-33
2022/03/15 09:18:09;;;;;;;;;;;;;;;19.23;58.00;102860.88;4977281;28;1795;-33
2022/03/15 09:20:36;;;;;;;;;;;;;;;19.26;57.45;102859.84;4977142;28;1581;-33
2022/03/15 09:23:06;;;;;;;;;;;;;;;19.24;57.58;102859.94;4977652;28;1760;-33
2022/03/15 09:25:37;;;;;;;;;;;;;;;19.19;57.54;102853.09;4977574;28;1734;-33
2022/03/15 09:28:05;;;;;;;;;;;;;;;19.15;57.87;102846.16;4977389;28;1985;-33
2022/03/15 09:30:34;;;;;;;;;;;;;;;19.15;57.44;102840.81;4973078;28;1594;-33
2022/03/15 09:33:01;;;;;;;;;;;;;;;19.11;58.03;102831.19;4977460;28;1934;-34
2022/03/15 09:35:38;;;;;;;;;;;;;;;19.05;58.24;102821.69;4976883;28;1840;-33
2022/03/15 09:38:07;;;;;;;;;;;;;;;19.02;58.62;102825.41;4973957;28;2024;-33
2022/03/15 09:40:33;;;;;;;;;;;;;;;19.02;58.03;102841.50;4977232;28;1655;-33
2022/03/15 09:43:00;;;;;;;;;;;;;;;19.04;58.09;102828.00;4977381;28;1967;-33
2022/03/15 09:45:32;;;;;;;;;;;;;;;18.99;58.41;102825.56;4977495;28;1138;-33
2022/03/15 09:48:04;;;;;;;;;;;;;;;18.96;58.65;102820.38;4977156;28;1750;-33
2022/03/15 09:50:40;;;;;;;;;;;;;;;19.00;58.29;102827.31;4976723;28;1898;-33
2022/03/15 09:53:09;;;;;;;;;;;;;;;18.99;58.30;102811.31;4973957;28;1797;-33
2022/03/15 09:55:40;;;;;;;;;;;;;;;18.98;57.93;102817.59;4976913;28;1588;-33
2022/03/15 09:58:08;;;;;;;;;;;;;;;18.99;57.83;102814.84;4976790;28;1784;-33
2022/03/15 10:00:37;;;;;;;;;;;;;;;19.13;57.10;102811.38;4977299;28;1028;-33
2022/03/15 10:03:04;;;;;;;;;;;;;;;19.16;57.18;102794.25;4976833;28;1745;-33
2022/03/15 10:05:44;;;;;;;;;;;;;;;19.17;57.83;102801.34;4976542;28;1784;-33
2022/03/15 10:08:18;;;;;;;;;;;;;;;19.24;57.07;102792.00;4974256;28;1854;-33
2022/03/15 10:10:49;;;;;;;;;;;;;;;19.10;57.72;102790.13;4973208;28;1818;-33
2022/03/15 10:13:23;;;;;;;;;;;;;;;19.30;56.76;102769.31;4976371;28;1845;-33
2022/03/15 10:16:03;;;;;;;;;;;;;;;19.31;56.92;102782.66;4976189;28;1238;-36
2022/03/15 10:18:31;;;;;;;;;;;;;;;19.27;56.66;102775.72;4974806;28;1415;-33
2022/03/15 10:21:04;;;;;;;;;;;;;;;19.34;56.54;102776.22;4977290;28;1083;-33
2022/03/15 10:23:36;;;;;;;;;;;;;;;19.32;56.70;102764.72;4976274;28;1555;-34
2022/03/15 10:26:07;;;;;;;;;;;;;;;19.61;56.17;102757.66;4976539;28;1746;-33
2022/03/15 10:28:39;;;;;;;;;;;;;;;19.52;56.42;102755.50;4975921;28;1979;-33
2022/03/15 10:31:20;;;;;;;;;;;;;;;19.37;56.87;102750.09;4975882;28;1865;-33
2022/03/15 10:33:47;;;;;;;;;;;;;;;19.36;55.99;102745.69;4959843;28;1833;-33
2022/03/15 10:36:22;;;;;;;;;;;;;;;19.40;55.50;102741.03;4975872;28;1275;-33
2022/03/15 10:38:51;;;;;;;;;;;;;;;19.19;54.58;102727.03;4974067;28;1439;-33
2022/03/15 10:41:20;;;;;;;;;;;;;;;19.00;53.81;102714.69;4976157;28;1150;-33
2022/03/15 10:43:53;;;;;;;;;;;;;;;19.17;54.80;102715.53;4976149;28;1841;-33
2022/03/15 10:46:22;;;;;;;;;;;;;;;19.19;55.01;102714.47;4976287;28;2025;-33
2022/03/15 10:49:03;;;;;;;;;;;;;;;19.35;53.32;102718.94;4975584;28;1985;-33
2022/03/15 10:51:39;;;;;;;;;;;;;;;19.30;53.43;102719.22;4972123;28;1639;-33
2022/03/15 10:54:09;;;;;;;;;;;;;;;19.25;54.05;102714.13;4972140;28;1805;-33
2022/03/15 10:56:38;;;;;;;;;;;;;;;19.37;54.18;102707.16;4975783;28;1419;-33
2022/03/15 10:59:14;;;;;;;;;;;;;;;19.29;53.66;102704.06;4975721;28;1788;-33
2022/03/15 11:01:42;;;;;;;;;;;;;;;19.20;53.88;102704.59;4974988;28;1514;-33
2022/03/15 11:04:10;;;;;;;;;;;;;;;19.30;53.08;102688.84;4975918;28;1665;-33
2022/03/15 11:06:39;;;;;;;;;;;;;;;19.64;52.67;102693.06;4975541;28;1156;-33
2022/03/15 11:09:27;;;;;;;;;;;;;;;19.57;53.53;102694.38;4975252;28;1907;-34
2022/03/15 11:11:57;;;;;;;;;;;;;;;19.44;53.74;102680.84;4970905;28;2210;-33
2022/03/15 11:14:39;;;;;;;;;;;;;;;19.23;53.05;102665.06;4956648;28;1087;-33
2022/03/15 11:17:08;;;;;;;;;;;;;;;19.03;50.32;102679.66;4966876;28;1832;-33
2022/03/15 11:19:41;;;;;;;;;;;;;;;18.87;50.93;102673.44;4975707;28;1571;-33
2022/03/15 11:22:17;;;;;;;;;;;;;;;18.87;51.59;102676.97;4974955;28;1407;-33
2022/03/15 11:24:58;;;;;;;;;;;;;;;19.06;51.02;102660.72;4963185;28;1937;-37
2022/03/15 11:27:26;;;;;;;;;;;;;;;18.98;50.77;102649.56;4970247;28;1722;-36
2022/03/15 11:29:57;;;;;;;;;;;;;;;19.07;51.76;102637.44;4969481;28;1975;-36
2022/03/15 11:32:27;;;;;;;;;;;;;;;18.96;50.78;102629.13;4968728;28;1848;-37
2022/03/15 11:34:54;;;;;;;;;;;;;;;18.85;51.19;102629.78;4974931;28;1754;-36
2022/03/15 11:37:29;;;;;;;;;;;;;;;18.79;50.76;102631.00;4974764;28;1895;-37
2022/03/15 11:39:58;;;;;;;;;;;;;;;18.81;50.45;102620.19;4974704;28;1623;-36
2022/03/15 11:42:28;;;;;;;;;;;;;;;18.72;50.74;102618.88;4976771;28;1656;-36
2022/03/15 11:45:05;;;;;;;;;;;;;;;18.95;51.27;102614.88;4975077;28;1051;-36
2022/03/15 11:47:41;;;;;;;;;;;;;;;18.93;51.98;102606.06;4974813;28;1992;-36
2022/03/15 11:50:12;;;;;;;;;;;;;;;19.07;51.62;102603.44;4974782;28;1886;-35
2022/03/15 11:52:51;;;;;;;;;;;;;;;19.03;51.04;102596.53;4974645;28;1873;-36
2022/03/15 11:55:21;;;;;;;;;;;;;;;18.93;50.89;102589.97;4987586;28;1642;-36
2022/03/15 11:58:11;;;;;;;;;;;;;;;19.31;50.59;102592.19;4975041;28;1748;-36
2022/03/15 12:00:42;;;;;;;;;;;;;;;19.32;50.89;102595.72;4971986;28;1518;-38
2022/03/15 12:03:13;;;;;;;;;;;;;;;19.17;50.89;102586.78;4975770;28;1820;-35
2022/03/15 12:05:49;;;;;;;;;;;;;;;19.03;50.94;102587.63;4974781;28;1365;-36
2022/03/15 12:08:21;;;;;;;;;;;;;;;19.02;51.18;102572.47;4974594;28;2007;-36
2022/03/15 12:10:56;;;;;;;;;;;;;;;19.12;51.29;102584.41;4974413;28;1977;-36
2022/03/15 12:13:33;;;;;;;;;;;;;;;19.01;51.36;102587.72;4974144;28;1753;-36
2022/03/15 12:16:09;;;;;;;;;;;;;;;19.10;51.04;102563.97;4963069;28;2147;-36
2022/03/15 12:18:43;;;;;;;;;;;;;;;19.16;50.25;102574.31;4974295;28;1450;-36
2022/03/15 12:21:10;;;;;;;;;;;;;;;19.20;50.36;102565.13;4973699;28;1534;-37
2022/03/15 12:23:52;;;;;;;;;;;;;;;19.13;50.52;102561.97;4975423;28;1396;-36
2022/03/15 12:26:24;;;;;;;;;;;;;;;19.09;50.91;102549.72;4975038;28;1281;-36
2022/03/15 12:28:56;;;;;;;;;;;;;;;19.10;51.05;102558.59;4981284;28;1650;-36
2022/03/15 12:31:32;;;;;;;;;;;;;;;19.05;50.32;102535.63;4976370;28;1906;-36
2022/03/15 12:34:06;;;;;;;;;;;;;;;19.04;50.67;102533.91;4974548;28;1905;-36
2022/03/15 12:36:48;;;;;;;;;;;;;;;19.04;50.94;102533.91;4974041;28;1522;-36
2022/03/15 12:39:26;;;;;;;;;;;;;;;19.03;50.79;102534.00;4973957;28;1562;-36
2022/03/15 12:42:05;;;;;;;;;;;;;;;19.01;51.03;102514.47;4962700;28;1549;-36
2022/03/15 12:44:42;;;;;;;;;;;;;;;19.02;50.79;102525.09;4978117;28;1462;-36
2022/03/15 12:47:09;;;;;;;;;;;;;;;19.03;50.54;102523.28;4982431;28;1997;-36
2022/03/15 12:49:39;;;;;;;;;;;;;;;19.01;51.31;102511.78;4974374;28;1906;-36
2022/03/15 12:52:15;;;;;;;;;;;;;;;19.00;52.01;102516.28;4974084;28;1788;-36
2022/03/15 12:54:46;;;;;;;;;;;;;;;18.99;52.02;102513.69;4962272;28;1800;-35
2022/03/15 12:57:13;;;;;;;;;;;;;;;18.97;51.68;102521.81;4982665;28;1608;-36
2022/03/15 12:59:43;;;;;;;;;;;;;;;18.99;52.32;102525.28;4974649;28;1056;-36
2022/03/15 13:02:27;;;;;;;;;;;;;;;18.97;52.49;102508.41;4973532;28;1564;-36
2022/03/15 13:04:58;;;;;;;;;;;;;;;18.95;51.78;102523.72;4974021;28;1929;-36
2022/03/15 13:07:36;;;;;;;;;;;;;;;18.95;51.72;102517.50;4975670;28;1649;-36
2022/03/15 13:10:08;;;;;;;;;;;;;;;18.89;51.73;102510.69;4964540;28;1928;-36
2022/03/15 13:12:36;;;;;;;;;;;;;;;19.00;51.79;102493.94;4974164;28;2002;-35